createdAt,value
2018-05-18T00:02:13.014Z,140.13
2018-05-18T00:04:41.439Z,108.63
2018-05-18T00:07:09.076Z,107.53
2018-05-18T00:09:36.739Z,123.50
2018-05-18T00:12:04.430Z,119.00
2018-05-18T00:14:32.067Z,111.30
2018-05-18T00:16:59.750Z,130.43
2018-05-18T00:19:27.415Z,121.83
2018-05-18T00:21:55.069Z,115.87
2018-05-18T00:24:22.738Z,120.87
2018-05-18T00:26:50.423Z,121.27
2018-05-18T00:29:18.082Z,123.73
2018-05-18T00:31:45.746Z,110.63
2018-05-18T00:34:14.180Z,117.40
2018-05-18T00:36:41.816Z,109.53
2018-05-18T00:39:09.479Z,112.03
2018-05-18T00:41:37.907Z,109.23
2018-05-18T00:44:05.555Z,96.90
2018-05-18T00:46:33.223Z,111.10
2018-05-18T00:49:00.879Z,121.20
2018-05-18T00:51:28.536Z,104.80
2018-05-18T00:53:56.226Z,94.30
2018-05-18T00:56:24.659Z,107.73
2018-05-18T00:58:52.304Z,101.63
2018-05-18T01:01:20.016Z,103.87
2018-05-18T01:03:47.680Z,99.90
2018-05-18T01:06:15.314Z,113.47
2018-05-18T01:08:42.967Z,88.67
2018-05-18T01:11:10.642Z,88.30
2018-05-18T01:13:38.340Z,75.30
2018-05-18T01:16:06.155Z,85.77
2018-05-18T01:18:33.831Z,73.43
2018-05-18T01:21:01.467Z,86.97
2018-05-18T01:23:29.145Z,96.33
2018-05-18T01:25:56.807Z,72.77
2018-05-18T01:28:24.451Z,87.00
2018-05-18T01:30:52.137Z,79.27
2018-05-18T01:33:19.803Z,93.37
2018-05-18T01:35:47.435Z,92.50
2018-05-18T01:38:15.159Z,84.60
2018-05-18T01:40:42.844Z,75.73
2018-05-18T01:43:10.484Z,80.30
2018-05-18T01:45:38.142Z,81.17
2018-05-18T01:48:06.389Z,73.73
2018-05-18T01:50:34.054Z,73.60
2018-05-18T01:53:02.502Z,97.37
2018-05-18T01:55:30.183Z,107.93
2018-05-18T01:57:58.585Z,98.40
2018-05-18T02:00:26.262Z,83.57
2018-05-18T02:02:54.020Z,97.87
2018-05-18T02:05:21.774Z,109.17
2018-05-18T02:07:49.471Z,92.10
2018-05-18T02:10:17.133Z,96.97
2018-05-18T02:12:44.841Z,90.43
2018-05-18T02:15:12.469Z,88.87
2018-05-18T02:17:40.153Z,88.53
2018-05-18T02:20:08.555Z,109.57
2018-05-18T02:22:36.230Z,112.43
2018-05-18T02:25:03.953Z,85.87
2018-05-18T02:27:31.604Z,91.87
2018-05-18T02:30:00.039Z,116.93
2018-05-18T02:32:27.712Z,97.37
2018-05-18T02:34:55.359Z,110.73
2018-05-18T02:37:23.031Z,101.97
2018-05-18T02:39:50.740Z,123.57
2018-05-18T02:42:19.196Z,103.77
2018-05-18T02:44:46.883Z,114.23
2018-05-18T02:47:15.340Z,115.43
2018-05-18T02:49:43.759Z,123.00
2018-05-18T02:52:11.431Z,120.90
2018-05-18T02:54:39.861Z,104.90
2018-05-18T02:57:08.282Z,102.03
2018-05-18T02:59:35.950Z,111.50
2018-05-18T03:02:03.659Z,101.70
2018-05-18T03:04:31.295Z,107.73
2018-05-18T03:06:58.958Z,114.63
2018-05-18T03:09:26.654Z,105.77
2018-05-18T03:11:55.037Z,96.57
2018-05-18T03:14:22.713Z,117.00
2018-05-18T03:16:50.391Z,114.90
2018-05-18T03:19:18.809Z,119.13
2018-05-18T03:21:46.476Z,101.93
2018-05-18T03:24:14.150Z,110.97
2018-05-18T03:26:42.560Z,117.53
2018-05-18T03:29:10.226Z,143.27
2018-05-18T03:31:37.890Z,127.77
2018-05-18T03:34:05.545Z,112.30
2018-05-18T03:36:33.222Z,107.77
2018-05-18T03:39:00.895Z,137.03
2018-05-18T03:41:28.532Z,111.83
2018-05-18T03:43:56.233Z,102.33
2018-05-18T03:46:23.910Z,101.90
2018-05-18T03:48:52.329Z,110.73
2018-05-18T03:51:19.991Z,103.30
2018-05-18T03:53:47.678Z,111.50
2018-05-18T03:56:15.318Z,103.60
2018-05-18T03:58:42.978Z,89.90
2018-05-18T04:01:17.274Z,101.40
2018-05-18T04:03:56.789Z,112.07
2018-05-18T04:06:36.969Z,106.80
2018-05-18T04:09:04.714Z,118.00
2018-05-18T04:11:32.425Z,117.37
2018-05-18T04:14:00.083Z,117.77
2018-05-18T04:16:27.781Z,101.73
2018-05-18T04:18:56.228Z,102.30
2018-05-18T04:21:23.870Z,102.93
2018-05-18T04:23:51.558Z,100.30
2018-05-18T04:26:19.234Z,101.90
2018-05-18T04:28:47.678Z,114.53
2018-05-18T04:31:15.344Z,95.20
2018-05-18T04:33:43.016Z,108.53
2018-05-18T04:36:10.669Z,115.23
2018-05-18T04:38:38.334Z,141.97
2018-05-18T04:41:06.012Z,97.90
2018-05-18T04:43:33.669Z,100.90
2018-05-18T04:46:01.334Z,115.90
2018-05-18T04:48:28.992Z,108.97
2018-05-18T04:50:56.724Z,107.60
2018-05-18T04:53:24.362Z,108.23
2018-05-18T04:55:52.029Z,115.07
2018-05-18T04:58:19.667Z,115.80
2018-05-18T05:00:47.347Z,100.47
2018-05-18T05:03:15.238Z,102.90
2018-05-18T05:05:44.016Z,89.50
2018-05-18T05:08:12.100Z,103.73
2018-05-18T05:10:41.020Z,80.10
2018-05-18T05:13:09.232Z,99.77
2018-05-18T05:15:37.040Z,98.00
2018-05-18T05:18:04.719Z,99.50
2018-05-18T05:20:33.120Z,100.53
2018-05-18T05:23:00.783Z,86.07
2018-05-18T05:25:28.459Z,98.13
2018-05-18T05:27:56.111Z,81.43
2018-05-18T05:30:23.789Z,84.93
2018-05-18T05:32:51.472Z,85.30
2018-05-18T05:35:19.105Z,76.33
2018-05-18T05:37:46.781Z,83.20
2018-05-18T05:40:14.450Z,87.23
2018-05-18T05:42:42.104Z,86.77
2018-05-18T05:45:09.850Z,89.43
2018-05-18T05:47:37.517Z,84.03
2018-05-18T05:50:05.179Z,76.43
2018-05-18T05:52:32.848Z,69.17
2018-05-18T05:55:00.519Z,73.10
2018-05-18T05:57:28.148Z,82.87
2018-05-18T05:59:55.815Z,80.47
2018-05-18T06:02:23.480Z,79.87
2018-05-18T06:04:51.114Z,73.33
2018-05-18T06:07:18.780Z,71.10
2018-05-18T06:09:46.556Z,70.63
2018-05-18T06:12:14.440Z,73.60
2018-05-18T06:14:42.273Z,79.40
2018-05-18T06:17:09.960Z,72.47
2018-05-18T06:19:37.617Z,74.47
2018-05-18T06:22:05.301Z,84.70
2018-05-18T06:24:32.981Z,68.17
2018-05-18T06:27:01.382Z,76.50
2018-05-18T06:29:29.053Z,66.70
2018-05-18T06:31:56.727Z,69.13
2018-05-18T06:34:24.363Z,65.27
2018-05-18T06:36:52.059Z,80.73
2018-05-18T06:39:19.735Z,63.03
2018-05-18T06:41:47.608Z,73.80
2018-05-18T06:44:16.124Z,75.53
2018-05-18T06:46:43.817Z,67.40
2018-05-18T06:49:11.459Z,53.30
2018-05-18T06:51:39.137Z,57.53
2018-05-18T06:54:06.826Z,63.30
2018-05-18T06:56:34.492Z,62.20
2018-05-18T06:59:02.150Z,66.60
2018-05-18T07:01:29.822Z,65.43
2018-05-18T07:03:58.312Z,59.37
2018-05-18T07:06:25.939Z,60.13
2018-05-18T07:08:53.655Z,59.93
2018-05-18T07:11:21.306Z,48.97
2018-05-18T07:13:48.962Z,73.17
2018-05-18T07:16:16.618Z,65.30
2018-05-18T07:18:44.254Z,59.20
2018-05-18T07:21:12.682Z,62.40
2018-05-18T07:23:40.342Z,63.83
2018-05-18T07:26:07.978Z,66.93
2018-05-18T07:28:35.644Z,62.60
2018-05-18T07:31:03.311Z,66.10
2018-05-18T07:33:30.979Z,56.73
2018-05-18T07:35:58.669Z,53.93
2018-05-18T07:38:26.424Z,71.67
2018-05-18T07:40:54.145Z,56.97
2018-05-18T07:43:21.810Z,54.07
2018-05-18T07:45:49.489Z,58.40
2018-05-18T07:48:17.121Z,43.93
2018-05-18T07:50:44.783Z,54.43
2018-05-18T07:53:12.448Z,45.70
2018-05-18T07:55:40.091Z,52.73
2018-05-18T07:58:08.522Z,41.10
2018-05-18T08:00:36.192Z,42.07
2018-05-18T08:03:03.894Z,40.60
2018-05-18T08:05:31.555Z,46.37
2018-05-18T08:07:59.985Z,39.10
2018-05-18T08:10:27.621Z,45.03
2018-05-18T08:12:55.279Z,34.37
2018-05-18T08:15:22.948Z,49.90
2018-05-18T08:17:50.678Z,45.63
2018-05-18T08:20:19.177Z,34.50
2018-05-18T08:22:46.851Z,29.17
2018-05-18T08:25:14.505Z,31.40
2018-05-18T08:27:42.200Z,34.50
2018-05-18T08:30:09.872Z,39.87
2018-05-18T08:32:37.506Z,33.10
2018-05-18T08:35:05.215Z,30.47
2018-05-18T08:37:33.674Z,32.63
2018-05-18T08:40:01.323Z,39.03
2018-05-18T08:42:29.002Z,38.00
2018-05-18T08:44:56.689Z,39.57
2018-05-18T08:47:24.315Z,36.10
2018-05-18T08:49:52.067Z,38.17
2018-05-18T08:52:19.719Z,38.53
2018-05-18T08:54:47.351Z,35.57
2018-05-18T08:57:15.046Z,28.53
2018-05-18T08:59:42.704Z,44.17
2018-05-18T09:02:10.338Z,31.07
2018-05-18T09:04:38.008Z,30.47
2018-05-18T09:07:05.681Z,34.87
2018-05-18T09:09:33.314Z,33.20
2018-05-18T09:12:00.979Z,31.40
2018-05-18T09:14:28.644Z,26.70
2018-05-18T09:16:56.283Z,32.60
2018-05-18T09:19:24.728Z,29.37
2018-05-18T09:21:53.151Z,34.23
2018-05-18T09:24:20.775Z,36.63
2018-05-18T09:26:49.206Z,31.10
2018-05-18T09:29:16.867Z,36.53
2018-05-18T09:31:44.515Z,28.70
2018-05-18T09:34:12.271Z,30.93
2018-05-18T09:36:39.902Z,35.23
2018-05-18T09:39:07.540Z,31.67
2018-05-18T09:41:35.217Z,26.20
2018-05-18T09:44:02.903Z,27.00
2018-05-18T09:46:30.934Z,28.90
2018-05-18T09:48:58.627Z,28.90
2018-05-18T09:51:26.318Z,28.60
2018-05-18T09:53:54.017Z,28.23
2018-05-18T09:56:22.501Z,27.70
2018-05-18T09:58:50.960Z,36.57
2018-05-18T10:01:18.623Z,43.00
2018-05-18T10:03:46.308Z,38.47
2018-05-18T10:06:14.767Z,27.57
2018-05-18T10:08:42.437Z,25.70
2018-05-18T10:11:10.098Z,25.47
2018-05-18T10:13:37.787Z,18.17
2018-05-18T10:16:05.448Z,22.07
2018-05-18T10:18:33.186Z,27.00
2018-05-18T10:21:00.820Z,27.80
2018-05-18T10:23:28.525Z,27.13
2018-05-18T10:25:56.323Z,23.67
2018-05-18T10:28:26.976Z,24.87
2018-05-18T10:30:54.616Z,20.33
2018-05-18T10:33:22.303Z,30.40
2018-05-18T10:35:49.988Z,27.20
2018-05-18T10:38:18.405Z,27.07
2018-05-18T10:40:46.079Z,26.13
2018-05-18T10:43:13.746Z,25.20
2018-05-18T10:45:41.378Z,29.37
2018-05-18T10:48:09.054Z,23.03
2018-05-18T10:50:36.731Z,27.47
2018-05-18T10:53:04.467Z,23.77
2018-05-18T10:55:32.098Z,24.90
2018-05-18T10:57:59.759Z,21.83
2018-05-18T11:00:27.419Z,26.10
2018-05-18T11:02:55.097Z,25.47
2018-05-18T11:05:22.794Z,19.43
2018-05-18T11:07:50.425Z,29.70
2018-05-18T11:10:18.880Z,19.77
2018-05-18T11:12:46.540Z,23.40
2018-05-18T11:15:14.184Z,25.50
2018-05-18T11:17:41.835Z,17.20
2018-05-18T11:20:10.389Z,21.43
2018-05-18T11:22:38.044Z,26.03
2018-05-18T11:25:05.741Z,28.77
2018-05-18T11:27:33.479Z,24.80
2018-05-18T11:30:01.128Z,23.37
2018-05-18T11:32:28.808Z,27.00
2018-05-18T11:34:56.470Z,20.33
2018-05-18T11:37:24.135Z,19.90
2018-05-18T11:39:51.809Z,23.20
2018-05-18T11:42:20.256Z,22.27
2018-05-18T11:44:47.939Z,20.47
2018-05-18T11:47:17.371Z,21.97
2018-05-18T11:49:45.059Z,18.87
2018-05-18T11:52:12.755Z,31.07
2018-05-18T11:54:40.460Z,26.73
2018-05-18T11:57:08.126Z,24.80
2018-05-18T11:59:35.758Z,19.97
2018-05-18T12:02:04.198Z,20.37
2018-05-18T12:04:31.884Z,26.27
2018-05-18T12:06:59.543Z,19.53
2018-05-18T12:09:27.215Z,19.20
2018-05-18T12:11:55.648Z,19.60
2018-05-18T12:14:23.588Z,17.43
2018-05-18T12:16:51.266Z,26.97
2018-05-18T12:19:18.967Z,17.63
2018-05-18T12:21:46.636Z,21.97
2018-05-18T12:24:15.083Z,21.03
2018-05-18T12:26:42.792Z,16.20
2018-05-18T12:29:11.191Z,16.83
2018-05-18T12:31:38.928Z,18.17
2018-05-18T12:34:06.630Z,18.60
2018-05-18T12:36:35.082Z,22.13
2018-05-18T12:39:02.795Z,18.60
2018-05-18T12:41:30.468Z,23.67
2018-05-18T12:43:58.107Z,16.87
2018-05-18T12:46:25.787Z,20.17
2018-05-18T12:48:53.478Z,18.60
2018-05-18T12:51:21.122Z,17.60
2018-05-18T12:53:49.588Z,28.27
2018-05-18T12:56:18.042Z,20.37
2018-05-18T12:58:45.713Z,16.73
2018-05-18T13:01:13.437Z,27.70
2018-05-18T13:03:41.111Z,23.27
2018-05-18T13:06:08.759Z,19.10
2018-05-18T13:08:36.433Z,22.30
2018-05-18T13:11:04.112Z,18.27
2018-05-18T13:13:31.753Z,16.60
2018-05-18T13:15:59.457Z,26.30
2018-05-18T13:18:27.159Z,20.57
2018-05-18T13:20:54.800Z,23.33
2018-05-18T13:23:22.469Z,20.07
2018-05-18T13:25:50.203Z,19.93
2018-05-18T13:28:18.615Z,21.57
2018-05-18T13:30:46.295Z,24.20
2018-05-18T13:33:13.965Z,24.33
2018-05-18T13:35:41.642Z,22.30
2018-05-18T13:38:09.297Z,24.60
2018-05-18T13:40:36.978Z,18.03
2018-05-18T13:43:04.623Z,22.13
2018-05-18T13:45:32.311Z,20.33
2018-05-18T13:48:00.755Z,19.83
2018-05-18T13:50:28.407Z,16.87
2018-05-18T13:52:56.075Z,24.20
2018-05-18T13:55:23.749Z,16.50
2018-05-18T13:57:51.384Z,16.93
2018-05-18T14:00:19.077Z,18.37
2018-05-18T14:02:46.749Z,23.53
2018-05-18T14:05:14.384Z,18.70
2018-05-18T14:07:42.050Z,20.60
2018-05-18T14:10:09.723Z,22.43
2018-05-18T14:12:38.128Z,17.57
2018-05-18T14:15:05.802Z,14.83
2018-05-18T14:17:33.463Z,14.87
2018-05-18T14:20:01.110Z,16.70
2018-05-18T14:22:28.841Z,20.23
2018-05-18T14:24:57.278Z,14.40
2018-05-18T14:27:24.941Z,18.03
2018-05-18T14:29:52.675Z,18.40
2018-05-18T14:32:20.354Z,21.53
2018-05-18T14:34:47.982Z,21.07
2018-05-18T14:37:15.653Z,23.83
2018-05-18T14:39:43.447Z,15.90
2018-05-18T14:42:11.259Z,18.20
2018-05-18T14:44:39.355Z,19.30
2018-05-18T14:47:12.043Z,23.07
2018-05-18T14:49:47.047Z,21.20
2018-05-18T14:52:19.765Z,19.50
2018-05-18T14:54:50.884Z,17.67
2018-05-18T14:57:18.694Z,13.87
2018-05-18T14:59:46.931Z,17.03
2018-05-18T15:02:15.703Z,22.50
2018-05-18T15:04:44.932Z,19.13
2018-05-18T15:07:12.765Z,22.70
2018-05-18T15:09:40.671Z,24.53
2018-05-18T15:12:08.605Z,17.53
2018-05-18T15:14:36.324Z,14.43
2018-05-18T15:17:04.966Z,20.73
2018-05-18T15:19:32.892Z,15.47
2018-05-18T15:22:01.738Z,12.27
2018-05-18T15:24:29.667Z,15.83
2018-05-18T15:26:57.490Z,19.80
2018-05-18T15:29:25.303Z,21.37
2018-05-18T15:31:53.171Z,12.60
2018-05-18T15:34:21.056Z,15.23
2018-05-18T15:36:48.868Z,14.77
2018-05-18T15:39:17.333Z,18.60
2018-05-18T15:41:45.792Z,15.30
2018-05-18T15:44:13.614Z,13.50
2018-05-18T15:46:41.537Z,17.60
2018-05-18T15:49:09.444Z,16.33
2018-05-18T15:51:37.208Z,21.90
2018-05-18T15:54:05.009Z,18.00
2018-05-18T15:56:32.965Z,14.30
2018-05-18T15:59:00.863Z,18.80
2018-05-18T16:01:29.515Z,16.23
2018-05-18T16:03:57.421Z,14.00
2018-05-18T16:06:26.067Z,22.57
2018-05-18T16:08:53.860Z,26.27
2018-05-18T16:11:21.604Z,14.97
2018-05-18T16:13:49.343Z,17.67
2018-05-18T16:16:17.152Z,13.60
2018-05-18T16:18:46.075Z,16.73
2018-05-18T16:21:13.935Z,19.87
2018-05-18T16:23:43.111Z,15.50
2018-05-18T16:26:11.645Z,15.53
2018-05-18T16:28:39.981Z,17.43
2018-05-18T16:31:07.822Z,21.97
2018-05-18T16:33:36.392Z,19.50
2018-05-18T16:36:04.096Z,17.63
2018-05-18T16:38:31.887Z,18.23
2018-05-18T16:40:59.579Z,18.73
2018-05-18T16:43:27.257Z,16.83
2018-05-18T16:45:54.949Z,14.47
2018-05-18T16:48:22.704Z,14.80
2018-05-18T16:50:50.464Z,19.23
2018-05-18T16:53:18.922Z,13.10
2018-05-18T16:55:47.406Z,16.03
2018-05-18T16:58:15.836Z,17.20
2018-05-18T17:00:43.600Z,24.33
2018-05-18T17:03:11.293Z,13.17
2018-05-18T17:05:39.791Z,13.97
2018-05-18T17:08:07.510Z,28.30
2018-05-18T17:10:35.218Z,14.27
2018-05-18T17:13:02.890Z,12.87
2018-05-18T17:15:30.682Z,11.83
2018-05-18T17:17:58.375Z,15.57
2018-05-18T17:20:26.034Z,16.73
2018-05-18T17:22:53.715Z,12.10
2018-05-18T17:25:22.175Z,17.23
2018-05-18T17:27:50.595Z,23.10
2018-05-18T17:30:18.294Z,16.97
2018-05-18T17:32:46.000Z,13.70
2018-05-18T17:35:13.707Z,11.47
2018-05-18T17:37:41.404Z,18.23
2018-05-18T17:40:09.213Z,21.67
2018-05-18T17:42:36.900Z,14.93
2018-05-18T17:45:04.655Z,16.80
2018-05-18T17:47:32.340Z,16.53
2018-05-18T17:50:00.045Z,15.77
2018-05-18T17:52:27.787Z,11.80
2018-05-18T17:54:55.487Z,16.63
2018-05-18T17:57:23.157Z,11.47
2018-05-18T17:59:50.868Z,13.50
2018-05-18T18:02:19.323Z,10.33
2018-05-18T18:04:46.969Z,14.40
2018-05-18T18:07:14.676Z,13.80
2018-05-18T18:09:43.176Z,16.73
2018-05-18T18:12:10.835Z,9.87
2018-05-18T18:14:38.527Z,16.37
2018-05-18T18:17:07.842Z,9.87
2018-05-18T18:19:35.490Z,10.90
2018-05-18T18:22:03.226Z,14.20
2018-05-18T18:24:30.940Z,13.43
2018-05-18T18:26:59.363Z,14.30
2018-05-18T18:29:27.025Z,10.80
2018-05-18T18:31:54.695Z,10.50
2018-05-18T18:34:22.340Z,9.97
2018-05-18T18:36:50.007Z,12.73
2018-05-18T18:39:17.662Z,12.30
2018-05-18T18:41:45.308Z,12.00
2018-05-18T18:44:12.984Z,14.13
2018-05-18T18:46:40.684Z,12.77
2018-05-18T18:49:08.334Z,14.03
2018-05-18T18:51:35.998Z,9.80
2018-05-18T18:54:03.709Z,11.73
2018-05-18T18:56:31.397Z,11.60
2018-05-18T18:58:59.093Z,10.80
2018-05-18T19:01:26.804Z,8.73
2018-05-18T19:03:54.457Z,13.97
2018-05-18T19:06:22.239Z,12.40
2018-05-18T19:08:50.712Z,10.10
2018-05-18T19:11:19.135Z,9.00
2018-05-18T19:13:46.813Z,13.00
2018-05-18T19:16:14.576Z,13.13
2018-05-18T19:18:43.047Z,15.47
2018-05-18T19:21:11.492Z,10.13
2018-05-18T19:23:39.233Z,17.60
2018-05-18T19:26:07.755Z,11.83
2018-05-18T19:28:35.787Z,12.13
2018-05-18T19:31:03.715Z,10.27
2018-05-18T19:33:31.470Z,12.37
2018-05-18T19:35:59.262Z,14.80
2018-05-18T19:38:27.012Z,12.10
2018-05-18T19:40:56.074Z,11.80
2018-05-18T19:43:23.923Z,14.97
2018-05-18T19:45:51.992Z,9.43
2018-05-18T19:48:19.843Z,10.80
2018-05-18T19:50:47.606Z,14.27
2018-05-18T19:53:15.559Z,13.67
2018-05-18T19:55:43.415Z,15.53
2018-05-18T19:58:11.205Z,13.77
2018-05-18T20:00:39.028Z,16.83
2018-05-18T20:03:06.915Z,19.57
2018-05-18T20:05:34.932Z,11.63
2018-05-18T20:08:02.724Z,11.77
2018-05-18T20:10:30.470Z,18.07
2018-05-18T20:12:58.899Z,15.03
2018-05-18T20:15:26.572Z,18.30
2018-05-18T20:17:54.224Z,17.03
2018-05-18T20:20:22.645Z,15.77
2018-05-18T20:22:51.260Z,12.07
2018-05-18T20:25:19.235Z,13.93
2018-05-18T20:27:47.170Z,16.60
2018-05-18T20:30:16.105Z,17.30
2018-05-18T20:32:44.755Z,19.80
2018-05-18T20:35:12.498Z,22.27
2018-05-18T20:37:40.339Z,18.40
2018-05-18T20:40:08.125Z,23.60
2018-05-18T20:42:36.710Z,15.03
2018-05-18T20:45:04.484Z,13.47
2018-05-18T20:47:32.306Z,19.87
2018-05-18T20:50:00.590Z,21.07
2018-05-18T20:52:28.399Z,24.57
2018-05-18T20:54:56.099Z,22.47
2018-05-18T20:57:24.502Z,17.83
2018-05-18T20:59:53.019Z,21.53
2018-05-18T21:02:20.926Z,21.43
2018-05-18T21:04:49.507Z,26.70
2018-05-18T21:07:17.582Z,21.23
2018-05-18T21:09:45.496Z,30.63
2018-05-18T21:12:13.423Z,22.67
2018-05-18T21:14:41.316Z,30.20
2018-05-18T21:17:09.982Z,26.40
2018-05-18T21:19:37.790Z,24.20
2018-05-18T21:22:05.462Z,26.83
2018-05-18T21:24:33.105Z,28.17
2018-05-18T21:27:00.782Z,24.10
2018-05-18T21:29:28.448Z,28.63
2018-05-18T21:31:56.070Z,25.30
2018-05-18T21:34:23.722Z,18.90
2018-05-18T21:36:52.161Z,24.77
2018-05-18T21:39:19.851Z,27.57
2018-05-18T21:41:48.283Z,23.63
2018-05-18T21:44:15.968Z,33.57
2018-05-18T21:46:43.612Z,26.47
2018-05-18T21:49:11.289Z,30.53
2018-05-18T21:51:38.960Z,30.73
2018-05-18T21:54:06.592Z,30.50
2018-05-18T21:56:34.253Z,27.53
2018-05-18T21:59:01.922Z,27.10
2018-05-18T22:01:29.583Z,38.33
2018-05-18T22:03:57.265Z,31.57
2018-05-18T22:06:24.922Z,30.47
2018-05-18T22:08:52.558Z,34.70
2018-05-18T22:11:20.271Z,33.80
2018-05-18T22:13:47.955Z,25.90
2018-05-18T22:16:15.590Z,31.87
2018-05-18T22:18:43.255Z,30.50
2018-05-18T22:21:10.950Z,32.33
2018-05-18T22:23:38.627Z,26.57
2018-05-18T22:26:06.291Z,35.20
2018-05-18T22:28:33.963Z,37.20
2018-05-18T22:31:01.584Z,30.33
2018-05-18T22:33:29.265Z,36.97
2018-05-18T22:35:57.027Z,30.67
2018-05-18T22:38:25.390Z,30.70
2018-05-18T22:40:53.063Z,34.47
2018-05-18T22:43:20.734Z,30.50
2018-05-18T22:45:48.381Z,26.47
2018-05-18T22:48:16.057Z,28.87
2018-05-18T22:50:43.725Z,28.80
2018-05-18T22:53:11.363Z,34.50
2018-05-18T22:55:39.033Z,28.00
2018-05-18T22:58:06.691Z,32.03
2018-05-18T23:00:34.330Z,33.10
2018-05-18T23:03:01.996Z,31.67
2018-05-18T23:05:29.664Z,32.40
2018-05-18T23:07:57.309Z,30.77
2018-05-18T23:10:24.973Z,25.30
2018-05-18T23:12:52.668Z,26.33
2018-05-18T23:15:20.308Z,29.20
2018-05-18T23:17:47.971Z,26.60
2018-05-18T23:20:15.636Z,26.87
2018-05-18T23:22:43.872Z,27.03
2018-05-18T23:25:11.543Z,29.63
2018-05-18T23:27:39.211Z,30.77
2018-05-18T23:30:06.839Z,31.90
2018-05-18T23:32:34.498Z,33.90
2018-05-18T23:35:02.164Z,33.07
2018-05-18T23:37:29.795Z,27.20
2018-05-18T23:39:57.460Z,30.97
2018-05-18T23:42:25.908Z,29.43
2018-05-18T23:44:53.579Z,28.93
2018-05-18T23:47:21.257Z,31.10
2018-05-18T23:49:49.681Z,27.07
2018-05-18T23:52:17.364Z,26.80
2018-05-18T23:54:45.042Z,25.03
2018-05-18T23:57:13.492Z,26.60
2018-05-18T23:59:41.114Z,28.43
